Time;durP1;ratioP1;P1;durP2;ratioP2;P2;SDS_P1;SDS_P2;PMS_P1;PMS_P2;Temp;Humidity;BMP_temperature;BMP_pressure;BME280_temperature;BME280_humidity;BME280_pressure;Samples;Min_cycle;Max_cycle;Signal;HPM_P1;HPM_P2
2021/04/27 00:01:21;;;;;;;;;;;22.10;33.10;;;;;;1555093;74;758;-58
2021/04/27 00:03:23;;;;;;;;;;;22.10;33.10;;;;;;1548590;74;955;-59
2021/04/27 00:05:25;;;;;;;;;;;22.20;33.10;;;;;;1571496;74;701;-57
2021/04/27 00:07:27;;;;;;;;;;;22.10;33.10;;;;;;1560017;74;786;-56
2021/04/27 00:09:28;;;;;;;;;;;22.10;33.20;;;;;;1564567;74;1124;-60
2021/04/27 00:11:30;;;;;;;;;;;22.10;33.20;;;;;;1567938;74;750;-59
2021/04/27 00:13:32;;;;;;;;;;;22.10;33.10;;;;;;1569896;74;697;-59
2021/04/27 00:15:34;;;;;;;;;;;22.10;33.10;;;;;;1568391;74;1942;-58
2021/04/27 00:17:36;;;;;;;;;;;22.20;33.10;;;;;;1563040;74;820;-59
2021/04/27 00:19:39;;;;;;;;;;;22.10;33.20;;;;;;1561177;74;1047;-60
2021/04/27 00:21:41;;;;;;;;;;;22.10;33.30;;;;;;1570145;74;754;-56
2021/04/27 00:23:42;;;;;;;;;;;22.20;33.40;;;;;;1561547;74;769;-58
2021/04/27 00:25:44;;;;;;;;;;;22.20;33.40;;;;;;1566831;74;724;-59
2021/04/27 00:27:50;;;;;;;;;;;22.20;33.40;;;;;;1567103;74;747;-58
2021/04/27 00:29:52;;;;;;;;;;;22.10;33.50;;;;;;1555988;75;1167;-57
2021/04/27 00:31:54;;;;;;;;;;;22.20;33.50;;;;;;1574617;74;796;-57
2021/04/27 00:33:57;;;;;;;;;;;22.10;33.60;;;;;;1564911;74;909;-55
2021/04/27 00:35:59;;;;;;;;;;;22.20;33.60;;;;;;1569141;74;1929;-55
2021/04/27 00:38:01;;;;;;;;;;;22.10;33.70;;;;;;1568819;74;753;-56
2021/04/27 00:40:03;;;;;;;;;;;22.10;33.70;;;;;;1559931;74;1126;-57
2021/04/27 00:42:05;;;;;;;;;;;22.10;33.70;;;;;;1567432;74;706;-56
2021/04/27 00:44:07;;;;;;;;;;;22.20;33.70;;;;;;1555196;74;740;-57
2021/04/27 00:46:09;;;;;;;;;;;22.10;33.70;;;;;;1561221;74;712;-57
2021/04/27 00:48:11;;;;;;;;;;;22.10;33.80;;;;;;1566927;74;726;-57
2021/04/27 00:50:17;;;;;;;;;;;22.20;33.80;;;;;;1560469;74;1113;-59
2021/04/27 00:52:19;;;;;;;;;;;22.20;33.80;;;;;;1561321;74;747;-59
2021/04/27 00:54:21;;;;;;;;;;;22.30;33.90;;;;;;1560194;74;757;-59
2021/04/27 00:56:23;;;;;;;;;;;22.30;33.90;;;;;;1564616;74;1951;-58
2021/04/27 00:58:26;;;;;;;;;;;22.30;33.90;;;;;;1556333;74;1042;-57
2021/04/27 01:00:28;;;;;;;;;;;22.30;33.90;;;;;;1570764;74;1107;-57
2021/04/27 01:02:30;;;;;;;;;;;22.30;33.90;;;;;;1563692;74;806;-58
2021/04/27 01:04:33;;;;;;;;;;;22.30;33.90;;;;;;1567953;74;779;-57
2021/04/27 01:06:35;;;;;;;;;;;22.30;33.90;;;;;;1561622;74;756;-58
2021/04/27 01:08:39;;;;;;;;;;;22.30;33.90;;;;;;1582203;74;615;-58
2021/04/27 01:10:42;;;;;;;;;;;22.30;33.90;;;;;;1574298;74;1115;-57
2021/04/27 01:12:45;;;;;;;;;;;22.30;33.90;;;;;;1558646;74;1187;-58
2021/04/27 01:14:49;;;;;;;;;;;22.30;34.10;;;;;;1562869;74;758;-58
2021/04/27 01:16:53;;;;;;;;;;;22.30;34.00;;;;;;1559866;74;1927;-58
2021/04/27 01:18:55;;;;;;;;;;;22.20;33.90;;;;;;1564300;74;1511;-57
2021/04/27 01:20:58;;;;;;;;;;;22.30;34.10;;;;;;1566402;74;726;-59
2021/04/27 01:23:04;;;;;;;;;;;22.30;34.10;;;;;;1563371;74;722;-57
2021/04/27 01:25:07;;;;;;;;;;;22.30;34.10;;;;;;1572282;74;741;-56
2021/04/27 01:27:09;;;;;;;;;;;22.30;34.20;;;;;;1575661;74;837;-59
2021/04/27 01:29:11;;;;;;;;;;;22.30;34.20;;;;;;1571055;74;1178;-59
2021/04/27 01:31:13;;;;;;;;;;;22.20;34.10;;;;;;1564585;74;738;-59
2021/04/27 01:33:16;;;;;;;;;;;22.20;34.20;;;;;;1555922;74;775;-57
2021/04/27 01:35:18;;;;;;;;;;;22.30;34.30;;;;;;1565699;74;834;-59
2021/04/27 01:37:20;;;;;;;;;;;22.20;34.30;;;;;;1573795;74;1945;-57
2021/04/27 01:39:27;;;;;;;;;;;22.20;34.40;;;;;;1568251;74;1146;-57
2021/04/27 01:41:29;;;;;;;;;;;22.20;34.40;;;;;;1570385;71;2042;-58
2021/04/27 01:43:30;;;;;;;;;;;22.30;34.60;;;;;;1558645;74;686;-59
2021/04/27 01:45:32;;;;;;;;;;;22.20;34.40;;;;;;1554296;74;831;-57
2021/04/27 01:47:35;;;;;;;;;;;22.20;34.40;;;;;;1558495;74;783;-59
2021/04/27 01:49:38;;;;;;;;;;;22.30;34.40;;;;;;1549525;75;1195;-59
2021/04/27 01:51:40;;;;;;;;;;;22.30;34.50;;;;;;1526530;75;773;-59
2021/04/27 01:53:42;;;;;;;;;;;22.20;34.50;;;;;;1526672;76;795;-59
2021/04/27 01:55:44;;;;;;;;;;;22.20;34.50;;;;;;1530077;75;825;-58
2021/04/27 01:57:46;;;;;;;;;;;22.20;34.50;;;;;;1530799;76;1953;-59
2021/04/27 01:59:48;;;;;;;;;;;22.30;34.70;;;;;;1535625;75;1082;-59
2021/04/27 02:01:50;;;;;;;;;;;22.20;34.60;;;;;;1542034;76;698;-59
2021/04/27 02:03:52;;;;;;;;;;;22.20;34.60;;;;;;1524370;75;713;-58
2021/04/27 02:05:54;;;;;;;;;;;22.20;34.50;;;;;;1533231;76;647;-59
2021/04/27 02:07:56;;;;;;;;;;;22.20;34.60;;;;;;1529910;75;799;-57
2021/04/27 02:09:57;;;;;;;;;;;22.20;34.50;;;;;;1536263;75;1073;-60
2021/04/27 02:11:59;;;;;;;;;;;22.10;34.70;;;;;;1531978;76;734;-58
2021/04/27 02:14:02;;;;;;;;;;;22.10;34.70;;;;;;1542854;75;813;-59
2021/04/27 02:16:04;;;;;;;;;;;22.10;34.70;;;;;;1525448;75;1976;-59
2021/04/27 02:18:24;;;;;;;;;;;22.20;34.70;;;;;;1535872;75;731;-60
2021/04/27 02:20:26;;;;;;;;;;;22.10;34.70;;;;;;1545112;75;1137;-59
2021/04/27 02:22:28;;;;;;;;;;;22.10;34.70;;;;;;1548602;75;794;-59
2021/04/27 02:24:30;;;;;;;;;;;22.10;34.90;;;;;;1540789;75;765;-60
2021/04/27 02:26:32;;;;;;;;;;;22.10;34.90;;;;;;1537835;76;810;-59
2021/04/27 02:28:34;;;;;;;;;;;22.10;34.80;;;;;;1525136;76;803;-58
2021/04/27 02:30:36;;;;;;;;;;;22.10;34.80;;;;;;1535100;74;1115;-58
2021/04/27 02:32:38;;;;;;;;;;;22.10;34.80;;;;;;1537603;76;737;-59
2021/04/27 02:34:40;;;;;;;;;;;22.10;34.90;;;;;;1538683;76;731;-58
2021/04/27 02:36:42;;;;;;;;;;;22.10;34.90;;;;;;1524244;76;1940;-60
2021/04/27 02:38:44;;;;;;;;;;;22.10;34.80;;;;;;1534998;76;806;-59
2021/04/27 02:40:45;;;;;;;;;;;22.10;34.90;;;;;;1530823;75;1113;-59
2021/04/27 02:42:51;;;;;;;;;;;22.00;35.00;;;;;;1526699;75;941;-59
2021/04/27 02:44:53;;;;;;;;;;;21.90;35.10;;;;;;1527271;75;647;-59
2021/04/27 02:46:55;;;;;;;;;;;21.90;35.20;;;;;;1535647;75;939;-59
2021/04/27 02:48:56;;;;;;;;;;;21.80;35.30;;;;;;1529342;75;1126;-59
2021/04/27 02:50:59;;;;;;;;;;;21.90;35.50;;;;;;1541635;75;755;-58
2021/04/27 02:53:01;;;;;;;;;;;21.80;35.70;;;;;;1523201;75;736;-60
2021/04/27 02:55:03;;;;;;;;;;;21.80;35.70;;;;;;1520226;75;722;-59
2021/04/27 02:57:05;;;;;;;;;;;21.80;35.70;;;;;;1535355;75;1927;-59
2021/04/27 02:59:07;;;;;;;;;;;21.80;36.00;;;;;;1517776;75;1137;-57
2021/04/27 03:01:09;;;;;;;;;;;21.80;36.00;;;;;;1527036;75;889;-59
2021/04/27 03:03:11;;;;;;;;;;;21.80;36.10;;;;;;1523797;75;722;-58
2021/04/27 03:05:13;;;;;;;;;;;21.70;36.10;;;;;;1515410;75;722;-59
2021/04/27 03:07:15;;;;;;;;;;;21.70;36.10;;;;;;1530035;75;750;-57
2021/04/27 03:09:17;;;;;;;;;;;21.70;36.20;;;;;;1526479;75;1128;-59
2021/04/27 03:11:19;;;;;;;;;;;21.70;36.20;;;;;;1519390;76;778;-59
2021/04/27 03:13:21;;;;;;;;;;;21.70;36.20;;;;;;1521365;76;839;-59
2021/04/27 03:15:22;;;;;;;;;;;21.70;36.10;;;;;;1521445;76;767;-58
2021/04/27 03:17:24;;;;;;;;;;;21.70;36.20;;;;;;1520284;76;1941;-58
2021/04/27 03:19:26;;;;;;;;;;;21.80;36.30;;;;;;1514908;76;1113;-59
2021/04/27 03:21:28;;;;;;;;;;;21.80;36.30;;;;;;1529498;75;735;-58
2021/04/27 03:23:30;;;;;;;;;;;21.70;36.30;;;;;;1514728;75;786;-59
2021/04/27 03:25:32;;;;;;;;;;;21.70;36.30;;;;;;1527484;75;782;-59
2021/04/27 03:27:34;;;;;;;;;;;21.80;36.30;;;;;;1518910;75;771;-58
2021/04/27 03:29:35;;;;;;;;;;;21.70;36.20;;;;;;1517629;75;1130;-59
2021/04/27 03:31:37;;;;;;;;;;;21.70;36.20;;;;;;1518348;75;755;-59
2021/04/27 03:33:39;;;;;;;;;;;21.80;36.20;;;;;;1516937;76;675;-58
2021/04/27 03:35:43;;;;;;;;;;;21.90;36.20;;;;;;1527995;76;755;-57
2021/04/27 03:37:45;;;;;;;;;;;21.80;36.00;;;;;;1528256;76;1936;-58
2021/04/27 03:39:46;;;;;;;;;;;21.80;36.20;;;;;;1526892;76;1110;-58
2021/04/27 03:41:48;;;;;;;;;;;21.80;36.20;;;;;;1511840;76;786;-58
2021/04/27 03:43:50;;;;;;;;;;;21.80;36.10;;;;;;1523306;76;686;-59
2021/04/27 03:45:52;;;;;;;;;;;21.80;36.20;;;;;;1529837;75;680;-57
2021/04/27 03:47:54;;;;;;;;;;;21.90;36.20;;;;;;1519220;75;735;-58
2021/04/27 03:49:56;;;;;;;;;;;21.80;36.10;;;;;;1534368;75;1151;-58
2021/04/27 03:51:58;;;;;;;;;;;21.90;36.20;;;;;;1527493;76;771;-59
2021/04/27 03:54:00;;;;;;;;;;;21.90;36.10;;;;;;1527243;76;748;-59
2021/04/27 03:56:01;;;;;;;;;;;21.90;36.00;;;;;;1525417;76;709;-57
2021/04/27 03:58:03;;;;;;;;;;;21.80;35.90;;;;;;1528904;75;1934;-60
2021/04/27 04:00:06;;;;;;;;;;;21.80;35.90;;;;;;1522366;75;1147;-58
2021/04/27 04:02:08;;;;;;;;;;;21.90;35.90;;;;;;1520967;76;732;-59
2021/04/27 04:04:09;;;;;;;;;;;21.90;35.90;;;;;;1524646;76;776;-59
2021/04/27 04:06:11;;;;;;;;;;;21.90;36.00;;;;;;1516907;76;694;-58
2021/04/27 04:08:13;;;;;;;;;;;21.90;35.90;;;;;;1519166;75;786;-57
2021/04/27 04:10:15;;;;;;;;;;;21.90;36.10;;;;;;1525347;75;1131;-58
2021/04/27 04:12:17;;;;;;;;;;;21.90;36.00;;;;;;1520350;76;770;-58
2021/04/27 04:14:19;;;;;;;;;;;21.80;35.90;;;;;;1522411;76;794;-59
2021/04/27 04:16:21;;;;;;;;;;;22.00;36.00;;;;;;1515772;76;782;-58
2021/04/27 04:18:23;;;;;;;;;;;21.90;35.70;;;;;;1521592;75;1939;-59
2021/04/27 04:20:25;;;;;;;;;;;21.90;35.70;;;;;;1531332;75;1169;-59
2021/04/27 04:22:27;;;;;;;;;;;21.90;35.50;;;;;;1530333;76;759;-60
2021/04/27 04:24:28;;;;;;;;;;;21.90;35.40;;;;;;1533619;76;722;-59
2021/04/27 04:26:30;;;;;;;;;;;21.90;35.20;;;;;;1519812;75;718;-59
2021/04/27 04:28:32;;;;;;;;;;;21.90;35.20;;;;;;1522714;76;799;-58
2021/04/27 04:30:34;;;;;;;;;;;21.90;35.00;;;;;;1531702;75;1161;-59
2021/04/27 04:32:36;;;;;;;;;;;21.90;35.00;;;;;;1523687;76;908;-59
2021/04/27 04:34:38;;;;;;;;;;;21.90;35.00;;;;;;1526395;76;792;-59
2021/04/27 04:36:41;;;;;;;;;;;21.90;34.90;;;;;;1527312;75;787;-59
2021/04/27 04:38:43;;;;;;;;;;;21.90;34.80;;;;;;1525079;75;1918;-57
2021/04/27 04:40:45;;;;;;;;;;;21.80;34.70;;;;;;1518502;75;1103;-59
2021/04/27 04:42:47;;;;;;;;;;;21.80;34.60;;;;;;1526644;75;777;-59
2021/04/27 04:44:49;;;;;;;;;;;21.90;34.70;;;;;;1527969;75;780;-58
2021/04/27 04:46:51;;;;;;;;;;;21.80;34.50;;;;;;1515427;75;713;-60
2021/04/27 04:48:53;;;;;;;;;;;21.90;34.50;;;;;;1527619;75;768;-58
2021/04/27 04:50:55;;;;;;;;;;;21.80;34.40;;;;;;1534907;75;760;-57
2021/04/27 04:52:56;;;;;;;;;;;21.90;34.50;;;;;;1528653;75;775;-58
2021/04/27 04:54:58;;;;;;;;;;;21.80;34.40;;;;;;1538239;76;778;-59
2021/04/27 04:57:00;;;;;;;;;;;21.80;34.40;;;;;;1530079;75;1926;-58
2021/04/27 04:59:02;;;;;;;;;;;21.90;34.70;;;;;;1526035;75;1137;-59
2021/04/27 05:01:04;;;;;;;;;;;21.80;34.40;;;;;;1524123;75;796;-59
2021/04/27 05:03:06;;;;;;;;;;;21.90;34.50;;;;;;1520984;75;689;-59
2021/04/27 05:05:09;;;;;;;;;;;21.80;34.30;;;;;;1526379;75;813;-59
2021/04/27 05:07:12;;;;;;;;;;;21.80;34.40;;;;;;1523119;75;688;-57
2021/04/27 05:09:14;;;;;;;;;;;21.90;34.40;;;;;;1528092;75;1141;-59
2021/04/27 05:11:16;;;;;;;;;;;21.80;34.30;;;;;;1521873;75;725;-59
2021/04/27 05:13:18;;;;;;;;;;;21.90;34.60;;;;;;1527408;75;739;-59
2021/04/27 05:15:20;;;;;;;;;;;21.90;34.70;;;;;;1527959;75;752;-59
2021/04/27 05:17:21;;;;;;;;;;;21.90;34.70;;;;;;1526585;76;1948;-58
2021/04/27 05:19:23;;;;;;;;;;;21.90;34.50;;;;;;1524105;75;1080;-59
2021/04/27 05:21:25;;;;;;;;;;;22.00;34.60;;;;;;1524931;76;753;-58
2021/04/27 05:23:27;;;;;;;;;;;22.00;34.70;;;;;;1532013;76;729;-59
2021/04/27 05:25:29;;;;;;;;;;;21.90;34.60;;;;;;1524893;75;756;-60
2021/04/27 05:27:31;;;;;;;;;;;21.90;34.60;;;;;;1526494;75;706;-58
2021/04/27 05:29:33;;;;;;;;;;;22.00;34.50;;;;;;1522419;76;1131;-57
2021/04/27 05:31:35;;;;;;;;;;;22.00;34.70;;;;;;1526398;76;772;-57
2021/04/27 05:33:37;;;;;;;;;;;22.00;34.40;;;;;;1526264;76;635;-58
2021/04/27 05:35:41;;;;;;;;;;;21.90;34.10;;;;;;1527393;75;902;-57
2021/04/27 05:37:42;;;;;;;;;;;22.00;34.10;;;;;;1520689;75;1935;-59
2021/04/27 05:39:44;;;;;;;;;;;22.00;34.00;;;;;;1522383;76;1133;-59
2021/04/27 05:41:46;;;;;;;;;;;21.90;33.70;;;;;;1542833;76;768;-57
2021/04/27 05:43:48;;;;;;;;;;;21.90;33.40;;;;;;1543153;75;805;-57
2021/04/27 05:45:49;;;;;;;;;;;21.90;33.20;;;;;;1524451;75;734;-58
2021/04/27 05:47:51;;;;;;;;;;;21.80;33.10;;;;;;1534763;76;672;-58
2021/04/27 05:49:53;;;;;;;;;;;21.80;33.00;;;;;;1549676;74;1151;-57
2021/04/27 05:51:55;;;;;;;;;;;21.90;33.00;;;;;;1534705;75;746;-59
2021/04/27 05:53:57;;;;;;;;;;;21.90;32.90;;;;;;1538296;76;741;-59
2021/04/27 05:55:59;;;;;;;;;;;21.90;32.80;;;;;;1531584;75;725;-59
2021/04/27 05:58:01;;;;;;;;;;;21.90;32.80;;;;;;1534953;75;1941;-58
2021/04/27 06:00:03;;;;;;;;;;;21.90;32.90;;;;;;1525023;75;1135;-58
2021/04/27 06:02:05;;;;;;;;;;;21.90;33.10;;;;;;1516136;76;644;-58
2021/04/27 06:04:07;;;;;;;;;;;22.00;33.10;;;;;;1516877;75;881;-60
2021/04/27 06:06:09;;;;;;;;;;;22.00;33.10;;;;;;1519335;75;842;-59
2021/04/27 06:08:11;;;;;;;;;;;21.90;33.10;;;;;;1519099;75;715;-59
2021/04/27 06:10:13;;;;;;;;;;;21.90;33.10;;;;;;1539939;75;1117;-58
2021/04/27 06:12:15;;;;;;;;;;;21.90;32.70;;;;;;1514771;76;760;-57
2021/04/27 06:14:16;;;;;;;;;;;21.90;32.20;;;;;;1516509;76;716;-58
2021/04/27 06:16:18;;;;;;;;;;;21.80;31.80;;;;;;1528695;76;741;-58
2021/04/27 06:18:20;;;;;;;;;;;21.90;32.10;;;;;;1516870;76;1937;-58
2021/04/27 06:20:22;;;;;;;;;;;21.90;32.10;;;;;;1522697;75;1124;-59
2021/04/27 06:22:24;;;;;;;;;;;21.80;31.80;;;;;;1530751;76;776;-58
2021/04/27 06:24:26;;;;;;;;;;;21.90;31.90;;;;;;1536360;75;727;-57
2021/04/27 06:26:28;;;;;;;;;;;21.80;31.80;;;;;;1530558;75;815;-57
2021/04/27 06:28:29;;;;;;;;;;;21.90;31.90;;;;;;1528328;75;768;-59
2021/04/27 06:30:31;;;;;;;;;;;21.80;31.50;;;;;;1526460;76;1141;-57
2021/04/27 06:32:33;;;;;;;;;;;21.80;31.70;;;;;;1512403;76;778;-59
2021/04/27 06:34:35;;;;;;;;;;;21.90;31.70;;;;;;1522598;76;788;-57
2021/04/27 06:36:37;;;;;;;;;;;21.80;31.70;;;;;;1526294;76;777;-59
2021/04/27 06:38:39;;;;;;;;;;;21.80;31.60;;;;;;1528886;75;1930;-58
2021/04/27 06:40:41;;;;;;;;;;;21.80;31.50;;;;;;1528003;76;1086;-57
2021/04/27 06:42:43;;;;;;;;;;;21.90;31.70;;;;;;1526426;75;742;-58
2021/04/27 06:44:44;;;;;;;;;;;21.80;31.70;;;;;;1527427;75;783;-58
2021/04/27 06:46:46;;;;;;;;;;;21.80;31.70;;;;;;1533270;75;797;-58
2021/04/27 06:48:48;;;;;;;;;;;21.80;31.70;;;;;;1536608;75;769;-59
2021/04/27 06:50:50;;;;;;;;;;;21.80;31.80;;;;;;1540007;75;1133;-58
2021/04/27 06:52:52;;;;;;;;;;;21.80;31.90;;;;;;1546288;75;814;-58
2021/04/27 06:54:54;;;;;;;;;;;21.90;32.30;;;;;;1553364;75;705;-57
2021/04/27 06:56:56;;;;;;;;;;;21.90;32.80;;;;;;1528101;75;688;-57
2021/04/27 06:58:58;;;;;;;;;;;21.90;33.30;;;;;;1529489;76;1936;-58
2021/04/27 07:01:00;;;;;;;;;;;22.10;32.70;;;;;;1540496;75;772;-58
2021/04/27 07:03:01;;;;;;;;;;;22.20;31.60;;;;;;1531277;75;771;-57
2021/04/27 07:05:03;;;;;;;;;;;22.40;30.30;;;;;;1532843;75;741;-58
2021/04/27 07:07:05;;;;;;;;;;;22.40;29.00;;;;;;1546467;75;824;-58
2021/04/27 07:09:07;;;;;;;;;;;22.40;28.00;;;;;;1520545;75;1095;-58
2021/04/27 07:11:10;;;;;;;;;;;22.50;28.10;;;;;;1532686;75;824;-58
2021/04/27 07:13:12;;;;;;;;;;;22.50;27.60;;;;;;1520406;75;731;-57
2021/04/27 07:15:14;;;;;;;;;;;22.60;27.50;;;;;;1511593;75;681;-58
2021/04/27 07:17:16;;;;;;;;;;;22.70;27.80;;;;;;1529852;75;741;-57
2021/04/27 07:19:18;;;;;;;;;;;22.60;27.10;;;;;;1526863;74;1946;-59
2021/04/27 07:21:22;;;;;;;;;;;22.70;27.40;;;;;;1531358;76;733;-60
2021/04/27 07:23:23;;;;;;;;;;;22.90;26.40;;;;;;1523513;76;919;-58
2021/04/27 07:25:25;;;;;;;;;;;22.90;26.70;;;;;;1526079;76;803;-59
2021/04/27 07:27:27;;;;;;;;;;;22.90;25.20;;;;;;1527093;76;767;-59
2021/04/27 07:29:29;;;;;;;;;;;22.90;25.80;;;;;;1528549;76;1181;-58
2021/04/27 07:31:31;;;;;;;;;;;23.00;25.10;;;;;;1529952;75;813;-58
2021/04/27 07:33:33;;;;;;;;;;;23.00;25.30;;;;;;1524410;75;771;-57
2021/04/27 07:35:35;;;;;;;;;;;23.00;24.80;;;;;;1530223;75;773;-58
2021/04/27 07:37:37;;;;;;;;;;;23.00;24.40;;;;;;1525422;75;788;-58
2021/04/27 07:39:38;;;;;;;;;;;23.10;24.10;;;;;;1524028;76;1959;-59
2021/04/27 07:41:40;;;;;;;;;;;23.00;24.40;;;;;;1582803;70;216896;-61
2021/04/27 07:43:42;;;;;;;;;;;23.10;24.40;;;;;;1622145;71;707;-62
2021/04/27 07:45:44;;;;;;;;;;;23.10;24.40;;;;;;1634837;71;773;-61
2021/04/27 07:47:46;;;;;;;;;;;23.10;24.40;;;;;;1653119;71;821;-60
2021/04/27 07:49:48;;;;;;;;;;;23.10;24.30;;;;;;1636677;71;812;-60
2021/04/27 07:51:50;;;;;;;;;;;23.10;23.40;;;;;;1628811;71;1176;-60
2021/04/27 07:53:52;;;;;;;;;;;23.10;24.20;;;;;;1622614;71;797;-61
2021/04/27 07:55:54;;;;;;;;;;;23.10;24.50;;;;;;1616483;71;717;-62
2021/04/27 07:57:56;;;;;;;;;;;23.10;24.40;;;;;;1618303;71;683;-62
2021/04/27 07:59:58;;;;;;;;;;;23.00;23.90;;;;;;1613927;71;1926;-62
2021/04/27 08:01:59;;;;;;;;;;;23.10;24.10;;;;;;1610316;71;1120;-62
2021/04/27 08:04:02;;;;;;;;;;;23.10;23.90;;;;;;1606579;71;792;-62
2021/04/27 08:06:04;;;;;;;;;;;23.10;24.20;;;;;;1608630;72;802;-62
2021/04/27 08:08:06;;;;;;;;;;;23.10;24.20;;;;;;1607784;72;729;-61
2021/04/27 08:10:08;;;;;;;;;;;23.10;23.50;;;;;;1616834;71;796;-59
2021/04/27 08:12:10;;;;;;;;;;;23.20;24.00;;;;;;1622512;71;1075;-61
2021/04/27 08:14:13;;;;;;;;;;;23.10;23.80;;;;;;1620474;71;804;-61
2021/04/27 08:16:15;;;;;;;;;;;23.10;24.10;;;;;;1624177;71;758;-61
2021/04/27 08:18:17;;;;;;;;;;;23.00;24.40;;;;;;1609967;71;1921;-62
2021/04/27 08:20:19;;;;;;;;;;;23.00;24.40;;;;;;1622333;71;1030;-58
2021/04/27 08:22:21;;;;;;;;;;;23.00;24.20;;;;;;1625018;71;1158;-63
2021/04/27 08:24:23;;;;;;;;;;;22.90;23.90;;;;;;1626611;71;715;-61
2021/04/27 08:26:26;;;;;;;;;;;22.60;23.30;;;;;;1624343;71;747;-62
2021/04/27 08:28:28;;;;;;;;;;;22.20;23.30;;;;;;1620430;71;827;-60
2021/04/27 08:30:30;;;;;;;;;;;22.00;24.40;;;;;;1619227;71;1147;-61
2021/04/27 08:32:31;;;;;;;;;;;21.90;23.70;;;;;;1616441;71;714;-61
2021/04/27 08:34:34;;;;;;;;;;;21.90;24.40;;;;;;1613322;71;744;-62
2021/04/27 08:36:36;;;;;;;;;;;21.90;24.50;;;;;;1616109;71;769;-63
2021/04/27 08:38:38;;;;;;;;;;;21.80;24.20;;;;;;1627650;71;1937;-61
2021/04/27 08:40:40;;;;;;;;;;;21.60;23.50;;;;;;1617127;71;1152;-60
2021/04/27 08:42:43;;;;;;;;;;;21.60;24.50;;;;;;1615273;71;782;-61
2021/04/27 08:44:45;;;;;;;;;;;21.60;24.80;;;;;;1629155;71;755;-60
2021/04/27 08:46:47;;;;;;;;;;;21.60;24.40;;;;;;1618652;71;881;-60
2021/04/27 08:48:49;;;;;;;;;;;21.40;23.90;;;;;;1621173;71;739;-60
2021/04/27 08:50:51;;;;;;;;;;;21.30;24.10;;;;;;1636835;71;1147;-61
2021/04/27 08:52:54;;;;;;;;;;;21.20;24.40;;;;;;1621262;71;927;-60
2021/04/27 08:54:56;;;;;;;;;;;21.30;25.20;;;;;;1616640;71;853;-61
2021/04/27 08:56:57;;;;;;;;;;;21.30;25.10;;;;;;1625217;71;798;-61
2021/04/27 08:58:59;;;;;;;;;;;21.30;25.20;;;;;;1619544;71;1925;-60
2021/04/27 09:01:01;;;;;;;;;;;21.20;25.20;;;;;;1618201;72;1140;-59
2021/04/27 09:03:05;;;;;;;;;;;21.10;24.90;;;;;;1624096;71;734;-62
2021/04/27 09:05:23;;;;;;;;;;;21.20;25.90;;;;;;1623875;71;1534;-60
2021/04/27 09:07:26;;;;;;;;;;;21.30;25.20;;;;;;1621009;71;765;-60
2021/04/27 09:09:30;;;;;;;;;;;21.20;25.50;;;;;;1625924;71;685;-61
2021/04/27 09:11:33;;;;;;;;;;;21.10;25.00;;;;;;1613535;73;1686;-62
2021/04/27 09:13:35;;;;;;;;;;;21.10;25.70;;;;;;1608612;71;836;-60
2021/04/27 09:15:38;;;;;;;;;;;21.10;25.40;;;;;;1624242;71;825;-61
2021/04/27 09:17:40;;;;;;;;;;;21.10;25.40;;;;;;1618931;71;1810;-60
2021/04/27 09:19:49;;;;;;;;;;;21.10;25.60;;;;;;1620911;71;1937;-61
2021/04/27 09:21:50;;;;;;;;;;;21.10;25.20;;;;;;1620718;72;1191;-61
2021/04/27 09:23:52;;;;;;;;;;;21.00;25.30;;;;;;1597093;72;1257;-62
2021/04/27 09:26:14;;;;;;;;;;;21.10;25.80;;;;;;1569443;74;768;-61
2021/04/27 09:28:18;;;;;;;;;;;21.10;25.70;;;;;;1622422;71;806;-61
2021/04/27 09:30:21;;;;;;;;;;;21.10;25.00;;;;;;1616409;71;1879;-60
2021/04/27 09:32:29;;;;;;;;;;;21.00;25.60;;;;;;1617118;71;1079;-61
2021/04/27 09:34:33;;;;;;;;;;;21.00;25.20;;;;;;1623921;71;725;-60
2021/04/27 09:36:35;;;;;;;;;;;21.00;26.00;;;;;;1608574;71;1060;-60
2021/04/27 09:38:37;;;;;;;;;;;21.00;25.20;;;;;;1587336;73;1935;-61
2021/04/27 09:40:52;;;;;;;;;;;20.90;25.70;;;;;;1612872;72;1122;-60
2021/04/27 09:42:54;;;;;;;;;;;21.00;25.50;;;;;;1609644;71;1850;-59
2021/04/27 09:44:56;;;;;;;;;;;21.00;24.70;;;;;;1620567;71;1113;-62
2021/04/27 09:47:14;;;;;;;;;;;20.80;25.60;;;;;;1619862;71;732;-61
2021/04/27 09:49:18;;;;;;;;;;;20.80;25.80;;;;;;1618250;71;800;-62
2021/04/27 09:51:21;;;;;;;;;;;20.90;26.40;;;;;;1616848;71;1333;-61
2021/04/27 09:53:25;;;;;;;;;;;21.00;25.50;;;;;;1624330;71;743;-60
2021/04/27 09:55:30;;;;;;;;;;;20.90;25.80;;;;;;1585774;71;1139;-60
2021/04/27 09:57:31;;;;;;;;;;;20.90;26.30;;;;;;1636162;71;1685;-60
2021/04/27 09:59:34;;;;;;;;;;;20.90;26.30;;;;;;1626706;72;1921;-59
2021/04/27 10:01:36;;;;;;;;;;;20.90;26.20;;;;;;1617515;72;1057;-59
2021/04/27 10:03:38;;;;;;;;;;;21.00;26.30;;;;;;1620920;71;762;-60
2021/04/27 10:05:45;;;;;;;;;;;21.00;26.00;;;;;;1615251;71;843;-59
2021/04/27 10:07:47;;;;;;;;;;;21.10;26.00;;;;;;1610842;71;738;-60
2021/04/27 10:09:49;;;;;;;;;;;21.00;25.70;;;;;;1612267;71;736;-61
2021/04/27 10:11:51;;;;;;;;;;;20.90;25.90;;;;;;1610715;71;1149;-60
2021/04/27 10:13:53;;;;;;;;;;;20.90;26.10;;;;;;1613511;73;724;-60
2021/04/27 10:15:55;;;;;;;;;;;20.80;26.20;;;;;;1618321;71;730;-61
2021/04/27 10:17:58;;;;;;;;;;;20.90;26.50;;;;;;1616694;71;729;-60
2021/04/27 10:20:00;;;;;;;;;;;20.90;26.70;;;;;;1626990;71;1934;-60
2021/04/27 10:22:02;;;;;;;;;;;20.90;26.20;;;;;;1621309;71;1154;-60
2021/04/27 10:24:08;;;;;;;;;;;21.00;26.10;;;;;;1618870;71;678;-61
2021/04/27 10:26:10;;;;;;;;;;;21.00;25.60;;;;;;1613824;71;878;-59
2021/04/27 10:28:12;;;;;;;;;;;20.90;25.50;;;;;;1620152;73;681;-61
2021/04/27 10:30:19;;;;;;;;;;;21.00;25.60;;;;;;1613283;73;798;-59
2021/04/27 10:32:25;;;;;;;;;;;20.90;26.10;;;;;;1620195;71;1137;-60
2021/04/27 10:34:27;;;;;;;;;;;20.80;25.70;;;;;;1619144;71;824;-60
2021/04/27 10:36:29;;;;;;;;;;;20.70;26.00;;;;;;1613601;71;801;-60
2021/04/27 10:38:41;;;;;;;;;;;20.80;26.30;;;;;;1631039;71;871;-59
2021/04/27 10:40:51;;;;;;;;;;;20.80;25.70;;;;;;1624000;72;1932;-60
2021/04/27 10:42:53;;;;;;;;;;;20.90;26.30;;;;;;1603075;71;1895;-59
2021/04/27 10:44:56;;;;;;;;;;;20.80;25.80;;;;;;1616684;71;810;-64
2021/04/27 10:47:00;;;;;;;;;;;20.90;26.10;;;;;;1614557;72;964;-60
2021/04/27 10:49:10;;;;;;;;;;;20.90;26.00;;;;;;1613208;71;692;-60
2021/04/27 10:51:23;;;;;;;;;;;20.80;25.70;;;;;;1614814;71;1139;-61
2021/04/27 10:53:36;;;;;;;;;;;20.70;26.00;;;;;;1612050;71;807;-60
2021/04/27 10:55:38;;;;;;;;;;;20.80;25.90;;;;;;1610775;72;799;-60
2021/04/27 10:57:46;;;;;;;;;;;20.70;26.50;;;;;;1616410;72;785;-62
2021/04/27 10:59:52;;;;;;;;;;;20.80;26.80;;;;;;1614449;72;1931;-62
2021/04/27 11:02:08;;;;;;;;;;;20.80;27.30;;;;;;1621255;72;1119;-58
2021/04/27 11:04:11;;;;;;;;;;;20.80;26.80;;;;;;1531974;73;1163;-62
2021/04/27 11:06:16;;;;;;;;;;;20.90;27.60;;;;;;1626919;71;1954;-61
2021/04/27 11:08:18;;;;;;;;;;;21.00;27.30;;;;;;1616975;72;788;-61
2021/04/27 11:10:21;;;;;;;;;;;21.10;26.90;;;;;;1617507;71;725;-60
2021/04/27 11:12:42;;;;;;;;;;;21.10;27.30;;;;;;1621038;72;1040;-60
2021/04/27 11:14:56;;;;;;;;;;;21.20;27.40;;;;;;1622204;71;673;-61
2021/04/27 11:16:58;;;;;;;;;;;21.10;26.80;;;;;;1611379;71;733;-62
2021/04/27 11:19:10;;;;;;;;;;;20.90;26.70;;;;;;1579697;73;677;-65
2021/04/27 11:21:12;;;;;;;;;;;20.80;26.30;;;;;;1620233;71;1712;-61
2021/04/27 11:23:32;;;;;;;;;;;20.70;26.90;;;;;;1617263;72;680;-61
2021/04/27 11:25:34;;;;;;;;;;;20.60;27.00;;;;;;1614676;71;733;-64
2021/04/27 11:27:37;;;;;;;;;;;20.40;27.00;;;;;;1617426;71;858;-61
2021/04/27 11:29:39;;;;;;;;;;;20.50;27.20;;;;;;1621610;71;700;-61
2021/04/27 11:31:59;;;;;;;;;;;20.40;27.50;;;;;;1608966;72;1239;-61
2021/04/27 11:34:01;;;;;;;;;;;20.50;28.50;;;;;;1578957;73;774;-63
2021/04/27 11:36:04;;;;;;;;;;;20.30;27.50;;;;;;1576500;73;766;-61
2021/04/27 11:38:06;;;;;;;;;;;20.30;27.90;;;;;;1583962;73;717;-61
2021/04/27 11:40:15;;;;;;;;;;;20.30;27.30;;;;;;1588275;73;1919;-60
2021/04/27 11:42:24;;;;;;;;;;;20.30;27.40;;;;;;1577111;73;1094;-60
2021/04/27 11:44:30;;;;;;;;;;;20.20;27.60;;;;;;1583919;73;812;-61
2021/04/27 11:46:34;;;;;;;;;;;20.20;27.90;;;;;;1584923;73;778;-61
2021/04/27 11:48:36;;;;;;;;;;;20.30;27.90;;;;;;1592178;73;1909;-61
2021/04/27 11:50:38;;;;;;;;;;;20.20;27.30;;;;;;1617084;71;1182;-60
2021/04/27 11:52:49;;;;;;;;;;;20.10;27.30;;;;;;1619883;71;817;-61
2021/04/27 11:54:50;;;;;;;;;;;20.00;27.30;;;;;;1613060;71;736;-61
2021/04/27 11:56:53;;;;;;;;;;;20.00;28.00;;;;;;1613908;72;868;-61
2021/04/27 11:58:55;;;;;;;;;;;20.00;28.30;;;;;;1626302;71;705;-61
2021/04/27 12:00:57;;;;;;;;;;;20.10;28.50;;;;;;1616739;71;1964;-60
2021/04/27 12:03:00;;;;;;;;;;;20.00;27.80;;;;;;1611843;71;690;-62
2021/04/27 12:05:02;;;;;;;;;;;20.00;27.90;;;;;;1581079;73;676;-62
2021/04/27 12:07:04;;;;;;;;;;;20.10;27.90;;;;;;1613414;71;723;-58
2021/04/27 12:09:11;;;;;;;;;;;20.10;27.60;;;;;;1619186;72;791;-60
2021/04/27 12:11:22;;;;;;;;;;;19.90;27.70;;;;;;1624775;71;1587;-61
2021/04/27 12:13:24;;;;;;;;;;;19.90;27.80;;;;;;1611580;72;654;-59